createdAt,value
2022-09-09T00:02:29.696Z,68906.00
2022-09-09T00:05:05.502Z,68900.88
2022-09-09T00:07:46.293Z,68882.00
2022-09-09T00:10:43.239Z,68884.84
2022-09-09T00:13:17.235Z,68909.41
2022-09-09T00:16:13.541Z,68884.38
2022-09-09T00:18:50.050Z,68893.66
2022-09-09T00:21:19.309Z,68899.94
2022-09-09T00:23:54.033Z,68906.56
2022-09-09T00:26:43.459Z,68914.16
2022-09-09T00:29:13.740Z,68892.34
2022-09-09T00:31:41.279Z,68892.56
2022-09-09T00:34:18.267Z,68881.72
2022-09-09T00:36:47.313Z,68878.69
2022-09-09T00:39:26.387Z,68883.03
2022-09-09T00:41:59.843Z,68896.13
2022-09-09T00:44:40.658Z,68886.28
2022-09-09T00:47:22.219Z,68882.09
2022-09-09T00:50:04.936Z,68888.19
2022-09-09T00:52:49.250Z,68858.78
2022-09-09T00:55:29.658Z,68860.47
2022-09-09T00:58:01.746Z,68838.88
2022-09-09T01:00:36.459Z,68835.06
2022-09-09T01:03:12.013Z,68842.28
2022-09-09T01:05:52.279Z,68838.88
2022-09-09T01:08:29.382Z,68829.94
2022-09-09T01:10:59.667Z,68833.94
2022-09-09T01:13:31.888Z,68846.28
2022-09-09T01:16:09.123Z,68861.03
2022-09-09T01:18:45.159Z,68869.75
2022-09-09T01:21:34.982Z,68851.38
2022-09-09T01:24:05.476Z,68841.13
2022-09-09T01:26:43.067Z,68841.72
2022-09-09T01:29:19.581Z,68854.41
2022-09-09T01:31:57.564Z,68861.81
2022-09-09T01:34:28.062Z,68875.28
2022-09-09T01:37:05.912Z,68835.94
2022-09-09T01:39:36.081Z,68866.19
2022-09-09T01:42:10.369Z,68852.72
2022-09-09T01:44:39.275Z,68840.19
2022-09-09T01:47:07.424Z,68843.03
2022-09-09T01:49:37.474Z,68849.84
2022-09-09T01:52:12.137Z,68841.13
2022-09-09T01:54:40.429Z,68836.59
2022-09-09T01:57:35.828Z,68838.09
2022-09-09T02:00:12.475Z,68831.47
2022-09-09T02:02:42.769Z,68816.31
2022-09-09T02:05:17.729Z,68815.56
2022-09-09T02:07:50.795Z,68809.09
2022-09-09T02:10:49.811Z,68781.22
2022-09-09T02:13:30.495Z,68768.72
2022-09-09T02:16:24.223Z,68757.34
2022-09-09T02:18:57.189Z,68733.03
2022-09-09T02:21:38.297Z,68752.59
2022-09-09T02:24:10.955Z,68740.47
2022-09-09T02:26:47.846Z,68733.66
2022-09-09T02:29:29.137Z,68732.31
2022-09-09T02:32:00.573Z,68756.59
2022-09-09T02:34:37.393Z,68740.09
2022-09-09T02:37:07.376Z,68755.81
2022-09-09T02:39:34.949Z,68749.19
2022-09-09T02:42:06.025Z,68752.22
2022-09-09T02:44:33.830Z,68738.69
2022-09-09T02:47:47.913Z,68751.28
2022-09-09T02:50:20.677Z,68765.69
2022-09-09T02:53:09.387Z,68760.75
2022-09-09T02:55:47.576Z,68766.81
2022-09-09T02:58:19.846Z,68761.31
2022-09-09T03:00:58.489Z,68776.06
2022-09-09T03:03:27.296Z,68784.81
2022-09-09T03:05:58.008Z,68775.75
2022-09-09T03:08:28.770Z,68785.41
2022-09-09T03:11:02.487Z,68774.59
2022-09-09T03:13:32.807Z,68772.88
2022-09-09T03:16:00.985Z,68766.25
2022-09-09T03:18:31.332Z,68742.69
2022-09-09T03:21:00.808Z,68754.69
2022-09-09T03:23:30.926Z,68757.75
2022-09-09T03:26:02.634Z,68745.03
2022-09-09T03:28:39.462Z,68729.69
2022-09-09T03:31:07.201Z,68719.47
2022-09-09T03:33:40.135Z,68713.78
2022-09-09T03:36:10.125Z,68735.53
2022-09-09T03:38:37.942Z,68721.34
2022-09-09T03:41:08.954Z,68729.69
2022-09-09T03:43:37.679Z,68739.91
2022-09-09T03:46:06.209Z,68746.75
2022-09-09T03:48:33.767Z,68744.66
2022-09-09T03:51:02.484Z,68741.63
2022-09-09T03:53:32.948Z,68733.09
2022-09-09T03:56:01.061Z,68720.78
2022-09-09T03:58:30.671Z,68734.41
2022-09-09T04:01:09.994Z,68733.66
2022-09-09T04:03:38.577Z,68732.72
2022-09-09T04:06:08.742Z,68726.84
2022-09-09T04:08:37.632Z,68721.34
2022-09-09T04:11:07.809Z,68717.38
2022-09-09T04:13:39.709Z,68717.16
2022-09-09T04:16:11.442Z,68724.56
2022-09-09T04:18:39.581Z,68720.03
2022-09-09T04:21:09.701Z,68720.03
2022-09-09T04:23:37.240Z,68691.53
2022-09-09T04:26:07.002Z,68711.13
2022-09-09T04:28:37.544Z,68711.13
2022-09-09T04:31:10.900Z,68715.47
2022-09-09T04:33:41.906Z,68706.88
2022-09-09T04:36:11.930Z,68736.31
2022-09-09T04:38:39.745Z,68729.09
2022-09-09T04:41:08.494Z,68720.59
2022-09-09T04:43:41.727Z,68725.31
2022-09-09T04:46:10.091Z,68725.72
2022-09-09T04:48:37.646Z,68730.81
2022-09-09T04:51:11.767Z,68709.16
2022-09-09T04:53:39.188Z,68728.53
2022-09-09T04:56:14.943Z,68720.03
2022-09-09T04:58:46.936Z,68710.75
2022-09-09T05:01:19.613Z,68712.81
2022-09-09T05:03:47.946Z,68708.09
2022-09-09T05:06:22.542Z,68700.69
2022-09-09T05:08:53.988Z,68697.47
2022-09-09T05:11:27.915Z,68698.22
2022-09-09T05:14:00.475Z,68710.75
2022-09-09T05:16:31.033Z,68706.00
2022-09-09T05:19:00.464Z,68711.84
2022-09-09T05:21:37.165Z,68688.69
2022-09-09T05:24:04.691Z,68704.69
2022-09-09T05:26:32.827Z,68702.56
2022-09-09T05:29:01.919Z,68694.44
2022-09-09T05:31:32.525Z,68691.22
2022-09-09T05:34:03.851Z,68696.16
2022-09-09T05:36:31.079Z,68694.06
2022-09-09T05:38:58.528Z,68697.84
2022-09-09T05:41:29.849Z,68713.41
2022-09-09T05:44:00.065Z,68708.09
2022-09-09T05:46:27.667Z,68705.81
2022-09-09T05:48:56.621Z,68704.69
2022-09-09T05:51:31.226Z,68706.94
2022-09-09T05:54:00.959Z,68716.03
2022-09-09T05:56:31.755Z,68710.16
2022-09-09T05:59:01.279Z,68720.03
2022-09-09T06:01:33.281Z,68712.25
2022-09-09T06:04:02.783Z,68705.25
2022-09-09T06:06:41.301Z,68703.53
2022-09-09T06:09:19.028Z,68700.88
2022-09-09T06:11:46.711Z,68690.66
2022-09-09T06:14:15.751Z,68701.25
2022-09-09T06:16:46.412Z,68699.56
2022-09-09T06:19:21.643Z,68700.88
2022-09-09T06:21:50.217Z,68718.88
2022-09-09T06:24:20.473Z,68723.59
2022-09-09T06:26:48.137Z,68735.38
2022-09-09T06:29:22.913Z,68751.28
2022-09-09T06:31:53.293Z,68762.25
2022-09-09T06:34:23.111Z,68790.50
2022-09-09T06:36:53.991Z,68814.41
2022-09-09T06:39:22.731Z,68816.88
2022-09-09T06:41:54.098Z,68840.03
2022-09-09T06:44:40.327Z,68846.44
2022-09-09T06:47:12.048Z,68863.16
2022-09-09T06:49:43.759Z,68877.56
2022-09-09T06:52:14.687Z,68898.03
2022-09-09T06:54:42.166Z,68906.94
2022-09-09T06:57:33.771Z,68917.97
2022-09-09T06:59:57.684Z,68909.41
2022-09-09T07:02:27.411Z,68889.91
2022-09-09T07:04:54.907Z,68878.31
2022-09-09T07:07:22.247Z,68871.47
2022-09-09T07:09:50.354Z,68870.16
2022-09-09T07:12:17.697Z,68860.09
2022-09-09T07:14:52.855Z,68854.22
2022-09-09T07:17:20.226Z,68845.13
2022-09-09T07:19:48.616Z,68848.72
2022-09-09T07:22:17.379Z,68853.84
2022-09-09T07:24:46.218Z,68891.38
2022-09-09T07:27:17.870Z,68913.88
2022-09-09T07:29:46.486Z,68979.22
2022-09-09T07:32:14.746Z,69021.03
2022-09-09T07:34:42.058Z,69028.78
2022-09-09T07:37:12.743Z,69035.81
2022-09-09T07:39:43.186Z,69032.03
2022-09-09T07:42:12.265Z,69030.31
2022-09-09T07:44:41.255Z,69041.13
2022-09-09T07:47:12.245Z,69054.50
2022-09-09T07:49:44.182Z,69108.19
2022-09-09T07:52:14.844Z,69111.03
2022-09-09T07:54:47.221Z,69119.59
2022-09-09T07:57:16.692Z,69106.34
2022-09-09T07:59:44.034Z,69177.94
2022-09-09T08:02:13.042Z,69197.53
2022-09-09T08:04:40.378Z,69224.50
2022-09-09T08:07:08.164Z,69227.34
2022-09-09T08:09:42.758Z,69171.31
2022-09-09T08:12:19.464Z,69178.72
2022-09-09T08:14:47.129Z,69171.06
2022-09-09T08:17:14.404Z,69158.53
2022-09-09T08:19:43.158Z,69154.34
2022-09-09T08:22:15.594Z,69127.44
2022-09-09T08:24:43.371Z,69175.06
2022-09-09T08:27:11.149Z,69201.31
2022-09-09T08:29:40.105Z,69197.53
2022-09-09T08:32:07.648Z,69186.13
2022-09-09T08:34:41.153Z,69208.72
2022-09-09T08:37:17.413Z,69201.13
2022-09-09T08:39:45.395Z,69190.84
2022-09-09T08:42:32.713Z,69170.75
2022-09-09T08:45:46.028Z,69198.09
2022-09-09T08:48:39.322Z,69212.94
2022-09-09T08:51:08.320Z,69253.34
2022-09-09T08:53:49.579Z,69270.91
2022-09-09T08:56:25.113Z,69265.56
2022-09-09T08:58:58.401Z,69239.75
2022-09-09T09:01:53.933Z,69265.16
2022-09-09T09:04:45.627Z,69235.75
2022-09-09T09:07:37.465Z,69251.47
2022-09-09T09:10:24.226Z,69251.69
2022-09-09T09:12:54.823Z,69237.81
2022-09-09T09:15:32.690Z,69209.50
2022-09-09T09:18:00.541Z,69207.22
2022-09-09T09:20:43.172Z,69227.16
2022-09-09T09:23:22.066Z,69214.97
2022-09-09T09:25:51.165Z,69211.00
2022-09-09T09:28:24.419Z,69204.13
2022-09-09T09:31:07.030Z,69178.16
2022-09-09T09:33:49.478Z,69189.72
2022-09-09T09:36:18.462Z,69178.31
2022-09-09T09:41:49.375Z,69181.00
2022-09-09T09:44:38.308Z,69204.88
2022-09-09T09:47:24.617Z,69222.22
2022-09-09T09:50:21.485Z,69241.78
2022-09-09T09:52:58.403Z,69258.72
2022-09-09T09:55:27.429Z,69272.59
2022-09-09T09:57:55.350Z,69278.28
2022-09-09T10:00:24.318Z,69287.44
2022-09-09T10:03:03.117Z,69309.66
2022-09-09T10:05:37.334Z,69353.63
2022-09-09T10:08:23.300Z,69357.28
2022-09-09T10:11:25.820Z,69353.28
2022-09-09T10:14:20.758Z,69392.44
2022-09-09T10:17:07.251Z,69397.22
2022-09-09T10:19:37.162Z,69450.69
2022-09-09T10:22:28.641Z,69488.81
2022-09-09T10:25:20.474Z,69499.66
2022-09-09T10:28:19.269Z,69513.75
2022-09-09T10:30:55.618Z,69480.59
2022-09-09T10:33:32.872Z,69491.50
2022-09-09T10:36:22.118Z,69428.03
2022-09-09T10:39:03.401Z,69431.84
2022-09-09T10:41:52.529Z,69399.13
2022-09-09T10:44:48.824Z,69390.38
2022-09-09T10:47:40.193Z,69409.41
2022-09-09T10:50:57.209Z,69392.66
2022-09-09T10:53:35.971Z,69402.16
2022-09-09T10:56:17.152Z,69419.28
2022-09-09T10:58:57.282Z,69455.09
2022-09-09T11:01:47.590Z,69449.72
2022-09-09T11:04:23.243Z,69454.50
2022-09-09T11:06:57.160Z,69461.75
2022-09-09T11:09:29.752Z,69513.53
2022-09-09T11:12:02.816Z,69508.00
2022-09-09T11:14:35.455Z,69540.38
2022-09-09T11:17:33.101Z,69502.69
2022-09-09T11:20:00.764Z,69467.84
2022-09-09T11:22:37.684Z,69437.38
2022-09-09T11:25:15.657Z,69406.72
2022-09-09T11:28:40.373Z,69366.97
2022-09-09T11:31:46.322Z,69319.00
2022-09-09T11:34:26.167Z,69283.09
2022-09-09T11:37:24.042Z,69265.75
2022-09-09T11:40:10.884Z,69253.56
2022-09-09T11:42:38.319Z,69204.38
2022-09-09T11:45:33.300Z,69243.50
2022-09-09T11:48:02.203Z,69264.59
2022-09-09T11:50:35.426Z,69285.16
2022-09-09T11:53:14.967Z,69281.38
2022-09-09T11:55:42.567Z,69294.50
2022-09-09T11:58:12.791Z,69325.66
2022-09-09T12:00:43.063Z,69305.91
2022-09-09T12:03:35.918Z,69349.63
2022-09-09T12:06:34.154Z,69293.34
2022-09-09T12:09:19.111Z,69288.78
2022-09-09T12:11:46.539Z,69279.66
2022-09-09T12:14:45.058Z,69302.28
2022-09-09T12:17:24.176Z,69255.16
2022-09-09T12:20:16.328Z,69258.72
2022-09-09T12:22:51.593Z,69278.69
2022-09-09T12:25:33.951Z,69304.94
2022-09-09T12:28:10.533Z,69342.59
2022-09-09T12:30:51.327Z,69357.44
2022-09-09T12:33:20.292Z,69385.44
2022-09-09T12:35:54.802Z,69366.97
2022-09-09T12:38:35.160Z,69343.56
2022-09-09T12:41:02.405Z,69370.19
2022-09-09T12:43:30.605Z,69396.44
2022-09-09T12:46:08.468Z,69412.25
2022-09-09T12:48:43.333Z,69411.84
2022-09-09T12:51:26.311Z,69407.50
2022-09-09T12:53:54.001Z,69430.31
2022-09-09T12:56:28.299Z,69457.53
2022-09-09T12:58:58.117Z,69440.97
2022-09-09T13:01:34.561Z,69402.91
2022-09-09T13:04:02.745Z,69390.94
2022-09-09T13:06:31.723Z,69362.41
2022-09-09T13:09:01.208Z,69364.69
2022-09-09T13:11:47.915Z,69414.53
2022-09-09T13:14:26.904Z,69436.97
2022-09-09T13:17:00.475Z,69453.38
2022-09-09T13:19:34.496Z,69463.25
2022-09-09T13:22:16.262Z,69478.31
2022-09-09T13:24:44.125Z,69513.53
2022-09-09T13:27:31.687Z,69510.09
2022-09-09T13:29:59.970Z,69493.53
2022-09-09T13:32:29.141Z,69480.25
2022-09-09T13:34:59.483Z,69460.03
2022-09-09T13:37:39.120Z,69482.28
2022-09-09T13:40:08.443Z,69488.00
2022-09-09T13:42:40.402Z,69484.41
2022-09-09T13:45:21.596Z,69444.63
2022-09-09T13:47:53.341Z,69455.81
2022-09-09T13:50:24.443Z,69449.94
2022-09-09T13:52:54.781Z,69442.69
2022-09-09T13:55:24.279Z,69420.03
2022-09-09T13:57:53.676Z,69411.50
2022-09-09T14:00:22.085Z,69424.41
2022-09-09T14:02:50.154Z,69403.88
2022-09-09T14:05:18.605Z,69416.81
2022-09-09T14:07:50.075Z,69405.59
2022-09-09T14:10:19.974Z,69408.28
2022-09-09T14:12:47.925Z,69411.28
2022-09-09T14:15:15.683Z,69409.00
2022-09-09T14:17:43.377Z,69418.13
2022-09-09T14:20:16.351Z,69420.59
2022-09-09T14:22:47.537Z,69446.34
2022-09-09T14:25:15.537Z,69462.31
2022-09-09T14:27:43.501Z,69482.88
2022-09-09T14:30:11.418Z,69502.28
2022-09-09T14:32:38.794Z,69539.81
2022-09-09T14:35:06.297Z,69547.63
2022-09-09T14:37:34.210Z,69560.97
2022-09-09T14:40:01.896Z,69567.41
2022-09-09T14:42:31.292Z,69555.81
2022-09-09T14:44:58.583Z,69528.00
2022-09-09T14:47:27.185Z,69560.41
2022-09-09T14:49:54.671Z,69567.81
2022-09-09T14:52:22.332Z,69569.53
2022-09-09T14:54:50.645Z,69556.94
2022-09-09T14:57:17.800Z,69513.13
2022-09-09T14:59:45.007Z,69505.72
2022-09-09T15:02:14.202Z,69513.72
2022-09-09T15:04:41.568Z,69547.63
2022-09-09T15:07:08.782Z,69540.56
2022-09-09T15:09:36.737Z,69584.97
2022-09-09T15:12:05.635Z,69630.53
2022-09-09T15:14:32.926Z,69628.03
2022-09-09T15:17:00.256Z,69633.16
2022-09-09T15:19:27.348Z,69630.13
2022-09-09T15:21:55.426Z,69622.69
2022-09-09T15:24:23.546Z,69611.25
2022-09-09T15:26:50.784Z,69604.22
2022-09-09T15:29:18.142Z,69594.09
2022-09-09T15:31:45.448Z,69607.25
2022-09-09T15:34:14.749Z,69614.53
2022-09-09T15:36:44.583Z,69583.44
2022-09-09T15:39:16.647Z,69568.56
2022-09-09T15:41:48.025Z,69544.00
2022-09-09T15:44:16.825Z,69529.69
2022-09-09T15:46:50.815Z,69542.09
2022-09-09T15:49:20.269Z,69524.97
2022-09-09T15:51:56.467Z,69501.72
2022-09-09T15:54:25.432Z,69496.56
2022-09-09T15:56:58.506Z,69505.94
2022-09-09T15:59:28.840Z,69498.91
2022-09-09T16:01:57.324Z,69484.25
2022-09-09T16:04:25.646Z,69483.66
2022-09-09T16:06:59.574Z,69488.41
2022-09-09T16:09:27.838Z,69489.53
2022-09-09T16:12:02.008Z,69479.84
2022-09-09T16:14:29.967Z,69456.22
2022-09-09T16:16:59.986Z,69436.00
2022-09-09T16:19:27.385Z,69431.84
2022-09-09T16:21:55.113Z,69433.19
2022-09-09T16:24:22.504Z,69455.25
2022-09-09T16:26:53.342Z,69453.53
2022-09-09T16:29:22.804Z,69419.47
2022-09-09T16:31:57.002Z,69435.09
2022-09-09T16:34:27.356Z,69411.84
2022-09-09T16:36:54.589Z,69398.72
2022-09-09T16:39:24.146Z,69356.13
2022-09-09T16:41:52.538Z,69343.00
2022-09-09T16:44:20.679Z,69341.84
2022-09-09T16:46:58.066Z,69363.50
2022-09-09T16:49:29.036Z,69342.41
2022-09-09T16:52:00.125Z,69328.16
2022-09-09T16:54:28.936Z,69361.03
2022-09-09T16:56:56.287Z,69344.72
2022-09-09T16:59:24.640Z,69363.88
2022-09-09T17:01:53.394Z,69353.63
2022-09-09T17:04:25.055Z,69327.59
2022-09-09T17:06:54.443Z,69347.91
2022-09-09T17:09:23.973Z,69344.88
2022-09-09T17:11:53.357Z,69345.28
2022-09-09T17:14:23.230Z,69323.78
2022-09-09T17:16:50.739Z,69305.28
2022-09-09T17:19:18.742Z,69284.59
2022-09-09T17:24:36.540Z,69247.09
2022-09-09T17:27:04.738Z,69242.91
2022-09-09T17:29:32.855Z,69226.97
2022-09-09T17:32:00.565Z,69214.06
2022-09-09T17:34:28.029Z,69202.44
2022-09-09T17:36:55.688Z,69195.59
2022-09-09T17:39:23.382Z,69206.25
2022-09-09T17:41:50.610Z,69213.66
2022-09-09T17:44:19.017Z,69215.78
2022-09-09T17:46:46.610Z,69219.38
2022-09-09T17:49:16.467Z,69229.63
2022-09-09T17:51:45.482Z,69236.66
2022-09-09T17:54:17.443Z,69238.38
2022-09-09T17:56:46.789Z,69220.50
2022-09-09T17:59:16.327Z,69213.84
2022-09-09T18:01:46.328Z,69206.41
2022-09-09T18:04:16.043Z,69197.88
2022-09-09T18:06:50.147Z,69187.06
2022-09-09T18:09:24.517Z,69186.47
2022-09-09T18:11:56.399Z,69190.47
2022-09-09T18:14:31.544Z,69191.25
2022-09-09T18:17:01.047Z,69179.47
2022-09-09T18:19:32.419Z,69160.81
2022-09-09T18:22:06.066Z,69161.59
2022-09-09T18:24:38.082Z,69146.56
2022-09-09T18:27:07.642Z,69137.84
2022-09-09T18:29:53.469Z,69130.59
2022-09-09T18:32:27.856Z,69113.91
2022-09-09T18:34:56.459Z,69099.66
2022-09-09T18:37:24.039Z,69096.81
2022-09-09T18:39:52.402Z,69071.03
2022-09-09T18:42:20.213Z,69123.75
2022-09-09T18:44:47.542Z,69121.28
2022-09-09T18:47:15.197Z,69107.22
2022-09-09T18:49:47.839Z,69085.75
2022-09-09T18:52:15.641Z,69084.84
2022-09-09T18:54:46.536Z,69084.84
2022-09-09T18:57:15.168Z,69090.31
2022-09-09T18:59:43.139Z,69101.34
2022-09-09T19:02:14.792Z,69125.88
2022-09-09T19:04:42.512Z,69115.78
2022-09-09T19:07:11.659Z,69097.56
2022-09-09T19:09:39.967Z,69098.91
2022-09-09T19:12:08.584Z,69078.19
2022-09-09T19:14:36.357Z,69066.03
2022-09-09T19:17:04.432Z,69070.59
2022-09-09T19:19:34.144Z,69058.63
2022-09-09T19:22:03.188Z,69052.38
2022-09-09T19:24:32.327Z,69051.97
2022-09-09T19:27:03.160Z,69019.75
2022-09-09T19:29:33.088Z,69034.13
2022-09-09T19:32:51.763Z,69025.00
2022-09-09T19:34:52.761Z,69035.25
2022-09-09T19:37:20.931Z,69021.03
2022-09-09T19:39:50.341Z,69011.50
2022-09-09T19:42:18.200Z,69005.66
2022-09-09T19:44:45.937Z,68999.75
2022-09-09T19:47:15.355Z,68993.09
2022-09-09T19:49:47.070Z,68994.41
2022-09-09T19:52:16.296Z,68988.16
2022-09-09T19:54:45.408Z,68983.63
2022-09-09T19:57:13.136Z,68985.72
2022-09-09T19:59:47.276Z,68990.28
2022-09-09T20:02:16.597Z,68985.31
2022-09-09T20:04:50.461Z,68989.72
2022-09-09T20:07:19.069Z,68984.00
2022-09-09T20:09:47.316Z,68982.31
2022-09-09T20:12:15.542Z,68987.59
2022-09-09T20:14:46.859Z,68999.94
2022-09-09T20:17:15.930Z,68990.28
2022-09-09T20:19:43.540Z,68993.69
2022-09-09T20:22:11.268Z,68981.34
2022-09-09T20:24:38.827Z,68985.72
2022-09-09T20:27:07.380Z,68990.84
2022-09-09T20:29:36.326Z,68977.63
2022-09-09T20:32:03.987Z,68994.41
2022-09-09T20:34:31.183Z,69014.19
2022-09-09T20:37:03.509Z,69011.16
2022-09-09T20:39:31.171Z,69016.06
2022-09-09T20:41:58.448Z,69006.41
2022-09-09T20:44:26.644Z,69003.94
2022-09-09T20:46:57.157Z,68989.31
2022-09-09T20:49:24.849Z,69005.84
2022-09-09T20:51:53.728Z,68994.41
2022-09-09T20:54:26.319Z,68988.16
2022-09-09T20:56:55.569Z,68980.03
2022-09-09T20:59:28.651Z,68976.59
2022-09-09T21:01:57.471Z,68966.53
2022-09-09T21:04:26.329Z,68970.91
2022-09-09T21:06:53.762Z,68967.69
2022-09-09T21:09:25.103Z,68971.47
2022-09-09T21:11:53.692Z,68973.19
2022-09-09T21:14:22.344Z,68978.31
2022-09-09T21:16:50.378Z,68963.50
2022-09-09T21:19:17.630Z,68962.56
2022-09-09T21:21:50.026Z,68958.41
2022-09-09T21:24:17.385Z,68960.09
2022-09-09T21:26:46.918Z,68964.66
2022-09-09T21:29:15.335Z,68951.56
2022-09-09T21:31:43.942Z,68960.09
2022-09-09T21:34:13.511Z,68958.56
2022-09-09T21:36:41.286Z,68951.75
2022-09-09T21:39:08.683Z,68954.22
2022-09-09T21:41:36.604Z,68956.69
2022-09-09T21:44:04.291Z,68939.78
2022-09-09T21:46:32.093Z,68952.72
2022-09-09T21:49:02.514Z,68950.41
2022-09-09T21:51:29.867Z,68944.16
2022-09-09T21:53:57.452Z,68938.47
2022-09-09T21:56:24.856Z,68907.06
2022-09-09T21:58:57.696Z,68933.34
2022-09-09T22:01:26.324Z,68921.56
2022-09-09T22:03:53.724Z,68918.91
2022-09-09T22:06:21.638Z,68910.16
2022-09-09T22:08:49.396Z,68914.72
2022-09-09T22:11:20.028Z,68910.00
2022-09-09T22:13:47.435Z,68915.84
2022-09-09T22:16:19.076Z,68891.69
2022-09-09T22:18:59.302Z,68906.00
2022-09-09T22:21:29.229Z,68909.03
2022-09-09T22:24:02.301Z,68896.50
2022-09-09T22:26:33.263Z,68898.81
2022-09-09T22:29:01.081Z,68888.53
2022-09-09T22:31:28.881Z,68901.28
2022-09-09T22:33:56.092Z,68898.63
2022-09-09T22:36:24.026Z,68907.69
2022-09-09T22:38:52.826Z,68924.38
2022-09-09T22:41:20.556Z,68919.88
2022-09-09T22:43:48.176Z,68914.53
2022-09-09T22:46:16.653Z,68914.16
2022-09-09T22:48:44.492Z,68910.16
2022-09-09T22:51:14.157Z,68909.03
2022-09-09T22:53:44.750Z,68911.72
2022-09-09T22:56:17.710Z,68912.06
2022-09-09T22:58:46.448Z,68903.91
2022-09-09T23:01:19.401Z,68888.38
2022-09-09T23:03:48.364Z,68903.00
2022-09-09T23:06:22.825Z,68892.16
2022-09-09T23:08:55.993Z,68884.97
2022-09-09T23:11:30.489Z,68901.44
2022-09-09T23:14:00.694Z,68880.97
2022-09-09T23:16:31.423Z,68885.53
2022-09-09T23:19:00.958Z,68880.97
2022-09-09T23:21:30.065Z,68882.09
2022-09-09T23:23:59.961Z,68877.56
2022-09-09T23:26:29.865Z,68866.75
2022-09-09T23:28:58.746Z,68862.38
2022-09-09T23:31:29.843Z,68854.78
2022-09-09T23:33:59.171Z,68864.84
2022-09-09T23:36:29.763Z,68872.81
2022-09-09T23:38:59.375Z,68857.47
2022-09-09T23:41:27.738Z,68864.25
2022-09-09T23:43:55.174Z,68857.81
2022-09-09T23:46:28.477Z,68844.91
2022-09-09T23:48:58.112Z,68855.19
2022-09-09T23:51:30.721Z,68861.44
2022-09-09T23:54:01.946Z,68876.41
2022-09-09T23:56:32.627Z,68906.56
2022-09-09T23:59:00.474Z,68907.13
